Слобода

СКИДКИ НА СМАРТФОНЫ!

Карта отелей и гостиниц, располагающихся рядом с аэропортом Слобода :

Слобода
Алексеевка
Белгородская область 50° 35' 15.36" N, 38° 39' 27.8388" E
Код аэродрома ИКАО
ZB2H
Код аэродрома RU
ЗБ2Х
Координаты
N50.58760° E038.65773°
Превышение над уровнем моря
191
Основная полоса
07/25
Курс магнитный
071,8/251,8
Длина основной ВПП
425
Ширина основной ВПП
18
Покрытие основной ВПП
Твёрдое (асфальтобетон)
Освещение ВПП
Нет
Тип: 
Аэродром
Класс аэродрома: 
Принадлежность: 
ГА
Статус: 
Недействующий
Сайт: 
E-mail аэродрома: 
Страна: 
Россия
Регион: 
Белгородская область
Город: 
Алексеевка
Дополнительная информация: 
Бывшая площадка АХР. Оператор: ООО "Эфирное", которое приостановило свою авиационную деятельность.

Скидки на навигаторы!

Найти трансфер

С помощью этой формы Вы можете найти трансфер из аэропорта Слобода в город, аэропорт или вокзал:

Погода в аэропортах:

Авиационная погода в аэропорту Бесовец

Регион: 
Погода METAR: 
ULPB 072100Z AUTO 14003MPS 070V190 6000 -SN ///016/// M06/M09 Q1012 RMK QFE755/1007
Время наблюдения
2022-12-07T21:00:00Z
Температура C
-6.0
Точка росы
-9.0
Направление ветра
140
Скорость ветра (узлы)
6
Метео видимость
3.73
Облачность
Нижняя граница облачности (футы)
Явления погоды
-SN
Условия полета
Аэропорт подробнее: 
-SN – слабый снег;

Авиационная погода в Мирном

Регион: 
Погода METAR: 
UERR 072100Z 01002MPS 9999 -SN NSC M19/M22 Q1001 R25/499030 NOSIG RMK QFE720/0960
Время наблюдения
2022-12-07T21:00:00Z
Температура C
-19.0
Точка росы
-22.0
Направление ветра
10
Скорость ветра (узлы)
4
Метео видимость
6.21
Облачность
CLR
Нижняя граница облачности (футы)
Явления погоды
-SN
Условия полета
VFR
Аэропорт подробнее: 
CLR — нет облаков ниже 3000 м
-SN – слабый снег;

Авиационная погода в Якутске

Регион: 
Погода METAR: 
UEEE 072100Z 03005MPS 5000 BR NSC M39/M43 Q1000 R23L/490150 NOSIG RMK QFE741
Время наблюдения
2022-12-07T21:00:00Z
Температура C
-39.0
Точка росы
-43.0
Направление ветра
30
Скорость ветра (узлы)
10
Метео видимость
3.11
Облачность
CLR
Нижняя граница облачности (футы)
Явления погоды
BR
Условия полета
MVFR
Аэропорт подробнее: 
CLR — нет облаков ниже 3000 м
BR – дымка (видимость от 1 до 9 км);

Авиационная погода в Абакане

Регион: 
Погода METAR: 
UNAA 072100Z 00000MPS 1000 0900SW R02/P2000D PRFG FU SCT010 M28/M30 Q1037 R02/CLRD65 TEMPO 0300 FZFG VV002 RMK QFE755
Время наблюдения
2022-12-07T21:00:00Z
Температура C
-28.0
Точка росы
-30.0
Направление ветра
0
Скорость ветра (узлы)
0
Метео видимость
0.62
Облачность
SCT
Нижняя граница облачности (футы)
1000
Явления погоды
PRFG FU
Условия полета
LIFR
Аэропорт подробнее: 
SCT – разбросанная отдельная облачность;
PRFG - туман просвечивающий; FU – дым (видимость менее 10 км);